OIFS  Shahrekord  Airport

Shahrekord, Iran

Add Bookmark
ICAO OIFS
IATA CQD
Type Airport
Status Operational
Latitude
32° 17' 49" N
32.297199
Longitude
50° 50' 31" E
50.842201
Local (DST + 5) UTC (GMT + 4)
Apr 19, 2015 06:35 Apr 19, 2015 14:05
Sunrise-Sunset Local UTC
Begin Civil Twilight 06:06 01:36
Sunrise 06:31 02:01
Sunset 07:39 15:09
End Civil Twilight 08:05 15:35
VFR
VFR
MVFR
MVFR
IFR
VFR
LIFR
VFR
Unknown
Unavailable

Current Weather

METAR Observed VFR
OIFS 191300Z 26008KT CAVOK 19/M01 Q1018 Sun, Apr 19, 2015 @ 13:00 UTC
(1 Hour, 5 Minutes ago)
Visual Flight Rules
Wind Visibility Conditions
260° at 8 knots (15 kph) 10 km or more
  • No significant weather
Temperatures Readings Precipitation
Current Temp
19°C
66°F
Dewpoint
-1°C
30°F
Humidity 26%
Altimeter 30.06" Hg
Sea Level Pressure 1,018 mb
Field Elevation
2,078 m
6,818 ft
None Recorded
-
-

CheckWX.com is intended as a tool to help pilots better visualize weather data. It is not intended as a substitute for an official weather briefing obtained from a Flight Service Station. CheckWX.com does not meet the FAA requirements for an official pre-flight weather briefing. Therefore, it's important that pilots still call and obtain an official FSS pre-flight weather briefing.

© 2007-2015 CheckWX.com
14:05:10 UTC